createdAt,value
2023-10-26T00:01:41.294Z,10.84
2023-10-26T00:04:11.183Z,10.67
2023-10-26T00:06:39.599Z,10.69
2023-10-26T00:09:08.088Z,10.76
2023-10-26T00:11:36.467Z,10.68
2023-10-26T00:14:05.055Z,10.74
2023-10-26T00:16:33.360Z,10.72
2023-10-26T00:19:03.305Z,10.64
2023-10-26T00:21:33.720Z,10.73
2023-10-26T00:24:02.120Z,10.70
2023-10-26T00:26:30.612Z,10.73
2023-10-26T00:28:59.734Z,10.64
2023-10-26T00:31:28.070Z,10.72
2023-10-26T00:33:56.461Z,10.62
2023-10-26T00:36:24.833Z,10.64
2023-10-26T00:38:55.208Z,10.77
2023-10-26T00:41:23.650Z,10.69
2023-10-26T00:43:52.681Z,10.56
2023-10-26T00:46:21.274Z,10.27
2023-10-26T00:48:49.911Z,10.41
2023-10-26T00:51:18.800Z,10.38
2023-10-26T00:53:47.404Z,10.50
2023-10-26T00:56:21.977Z,10.58
2023-10-26T00:58:51.373Z,10.66
2023-10-26T01:01:20.205Z,10.66
2023-10-26T01:03:50.202Z,10.76
2023-10-26T01:06:18.681Z,10.82
2023-10-26T01:08:48.318Z,10.83
2023-10-26T01:11:21.193Z,10.70
2023-10-26T01:13:50.192Z,10.59
2023-10-26T01:16:19.193Z,10.49
2023-10-26T01:18:48.058Z,10.41
2023-10-26T01:21:16.512Z,10.40
2023-10-26T01:23:46.293Z,10.57
2023-10-26T01:26:14.661Z,10.63
2023-10-26T01:28:43.073Z,10.77
2023-10-26T01:31:11.374Z,10.82
2023-10-26T01:33:39.798Z,10.88
2023-10-26T01:36:08.812Z,10.76
2023-10-26T01:38:38.272Z,10.82
2023-10-26T01:41:08.273Z,11.01
2023-10-26T01:43:36.602Z,11.05
2023-10-26T01:46:05.253Z,11.01
2023-10-26T01:48:34.818Z,10.99
2023-10-26T01:51:03.408Z,10.95
2023-10-26T01:53:31.789Z,10.78
2023-10-26T01:56:00.174Z,10.73
2023-10-26T01:58:30.213Z,10.62
2023-10-26T02:00:58.616Z,10.65
2023-10-26T02:03:27.294Z,10.60
2023-10-26T02:05:56.225Z,10.55
2023-10-26T02:08:24.705Z,10.53
2023-10-26T02:10:53.747Z,10.57
2023-10-26T02:13:22.040Z,10.62
2023-10-26T02:15:51.877Z,10.60
2023-10-26T02:18:20.267Z,10.63
2023-10-26T02:20:48.812Z,10.62
2023-10-26T02:23:17.309Z,10.61
2023-10-26T02:25:45.578Z,10.56
2023-10-26T02:28:16.969Z,10.56
2023-10-26T02:30:46.653Z,10.61
2023-10-26T02:33:16.431Z,10.72
2023-10-26T02:35:44.785Z,10.82
2023-10-26T02:38:13.244Z,10.80
2023-10-26T02:40:42.131Z,10.67
2023-10-26T02:43:10.576Z,10.37
2023-10-26T02:45:38.931Z,10.77
2023-10-26T02:48:07.700Z,10.78
2023-10-26T02:50:38.312Z,10.87
2023-10-26T02:53:06.630Z,10.85
2023-10-26T02:55:35.019Z,10.97
2023-10-26T02:58:03.353Z,10.98
2023-10-26T03:00:31.745Z,11.04
2023-10-26T03:03:00.265Z,11.05
2023-10-26T03:05:30.980Z,11.04
2023-10-26T03:08:01.022Z,11.05
2023-10-26T03:10:29.874Z,10.37
2023-10-26T03:12:58.681Z,11.05
2023-10-26T03:15:28.233Z,11.01
2023-10-26T03:17:56.663Z,10.96
2023-10-26T03:20:25.245Z,10.95
2023-10-26T03:22:53.588Z,10.87
2023-10-26T03:25:24.836Z,10.82
2023-10-26T03:27:53.154Z,10.77
2023-10-26T03:30:21.618Z,10.78
2023-10-26T03:32:50.273Z,10.82
2023-10-26T03:35:18.773Z,10.83
2023-10-26T03:37:47.167Z,10.82
2023-10-26T03:40:15.912Z,10.63
2023-10-26T03:42:45.952Z,10.72
2023-10-26T03:45:15.885Z,10.82
2023-10-26T03:47:44.288Z,10.86
2023-10-26T03:50:15.761Z,10.88
2023-10-26T03:52:45.438Z,11.02
2023-10-26T03:55:13.861Z,11.15
2023-10-26T03:57:42.149Z,11.19
2023-10-26T04:00:14.023Z,11.24
2023-10-26T04:02:42.554Z,11.29
2023-10-26T04:05:11.573Z,11.28
2023-10-26T04:07:40.951Z,11.32
2023-10-26T04:10:11.109Z,11.38
2023-10-26T04:12:39.679Z,11.29
2023-10-26T04:15:09.313Z,11.42
2023-10-26T04:17:39.197Z,11.43
2023-10-26T04:20:10.031Z,11.38
2023-10-26T04:22:38.456Z,11.19
2023-10-26T04:25:07.558Z,10.78
2023-10-26T04:27:36.555Z,10.55
2023-10-26T04:30:06.304Z,10.63
2023-10-26T04:32:34.853Z,10.43
2023-10-26T04:35:04.999Z,10.51
2023-10-26T04:37:33.379Z,10.61
2023-10-26T04:40:03.780Z,10.49
2023-10-26T04:42:32.657Z,10.57
2023-10-26T04:45:01.087Z,10.56
2023-10-26T04:47:29.481Z,10.50
2023-10-26T04:49:57.890Z,10.46
2023-10-26T04:52:27.579Z,10.45
2023-10-26T04:54:56.020Z,10.45
2023-10-26T04:57:24.374Z,10.31
2023-10-26T04:59:52.696Z,10.30
2023-10-26T05:02:21.093Z,10.26
2023-10-26T05:04:49.435Z,10.18
2023-10-26T05:07:17.779Z,9.95
2023-10-26T05:09:47.455Z,10.08
2023-10-26T05:12:15.831Z,10.10
2023-10-26T05:14:44.366Z,10.20
2023-10-26T05:17:12.870Z,10.30
2023-10-26T05:19:41.381Z,10.42
2023-10-26T05:22:09.687Z,10.45
2023-10-26T05:24:40.023Z,10.44
2023-10-26T05:27:09.785Z,10.46
2023-10-26T05:29:38.126Z,10.50
2023-10-26T05:32:06.986Z,10.52
2023-10-26T05:34:35.253Z,10.42
2023-10-26T05:37:03.530Z,10.43
2023-10-26T05:39:34.350Z,10.15
2023-10-26T05:42:05.306Z,10.34
2023-10-26T05:44:35.286Z,10.38
2023-10-26T05:47:03.640Z,10.33
2023-10-26T05:49:31.929Z,10.13
2023-10-26T05:52:02.077Z,9.85
2023-10-26T05:54:30.831Z,9.46
2023-10-26T05:56:59.302Z,9.23
2023-10-26T05:59:27.785Z,9.12
2023-10-26T06:01:57.924Z,9.35
2023-10-26T06:04:26.298Z,9.24
2023-10-26T06:06:54.559Z,9.40
2023-10-26T06:09:23.884Z,9.49
2023-10-26T06:11:52.540Z,9.57
2023-10-26T06:14:20.869Z,9.77
2023-10-26T06:16:49.348Z,9.75
2023-10-26T06:19:19.431Z,9.78
2023-10-26T06:21:47.810Z,9.82
2023-10-26T06:24:16.173Z,9.80
2023-10-26T06:26:44.516Z,9.95
2023-10-26T06:29:11.965Z,10.20
2023-10-26T06:31:40.342Z,10.26
2023-10-26T06:34:08.827Z,10.36
2023-10-26T06:36:38.589Z,10.07
2023-10-26T06:39:07.093Z,9.90
2023-10-26T06:41:35.450Z,9.85
2023-10-26T06:44:06.322Z,10.03
2023-10-26T06:46:34.676Z,10.17
2023-10-26T06:49:08.934Z,10.06
2023-10-26T06:51:49.541Z,9.98
2023-10-26T06:54:18.210Z,9.87
2023-10-26T06:56:46.689Z,10.07
2023-10-26T06:59:15.042Z,10.18
2023-10-26T07:02:09.110Z,10.28
2023-10-26T07:04:33.658Z,10.48
2023-10-26T07:07:07.770Z,10.60
2023-10-26T07:09:41.186Z,10.57
2023-10-26T07:12:12.968Z,10.44
2023-10-26T07:14:45.469Z,9.99
2023-10-26T07:17:15.535Z,9.78
2023-10-26T07:19:44.022Z,10.01
2023-10-26T07:22:13.736Z,9.86
2023-10-26T07:24:42.305Z,9.88
2023-10-26T07:27:10.874Z,9.84
2023-10-26T07:29:39.545Z,10.01
2023-10-26T07:32:08.710Z,9.98
2023-10-26T07:34:37.051Z,9.98
2023-10-26T07:37:07.739Z,10.19
2023-10-26T07:39:45.257Z,10.35
2023-10-26T07:42:16.640Z,10.23
2023-10-26T07:44:45.985Z,10.38
2023-10-26T07:47:14.537Z,10.40
2023-10-26T07:49:42.863Z,10.41
2023-10-26T07:52:11.234Z,10.43
2023-10-26T07:54:41.022Z,10.23
2023-10-26T07:57:09.398Z,10.21
2023-10-26T07:59:37.756Z,10.40
2023-10-26T08:02:05.459Z,10.14
2023-10-26T08:04:34.375Z,10.26
2023-10-26T08:07:02.845Z,10.11
2023-10-26T08:09:33.634Z,10.39
2023-10-26T08:12:04.159Z,10.28
2023-10-26T08:16:09.999Z,10.07
2023-10-26T08:17:22.001Z,10.18
2023-10-26T08:19:54.905Z,10.04
2023-10-26T08:22:23.626Z,10.01
2023-10-26T08:24:52.019Z,10.13
2023-10-26T08:27:21.747Z,10.20
2023-10-26T08:29:52.494Z,10.11
2023-10-26T08:32:21.197Z,10.04
2023-10-26T08:34:50.109Z,10.16
2023-10-26T08:37:19.602Z,10.16
2023-10-26T08:39:47.926Z,10.18
2023-10-26T08:42:17.059Z,10.24
2023-10-26T08:44:47.097Z,10.25
2023-10-26T08:47:18.851Z,10.28
2023-10-26T08:50:03.650Z,10.60
2023-10-26T08:52:36.786Z,10.61
2023-10-26T08:55:06.254Z,10.64
2023-10-26T08:57:34.629Z,11.11
2023-10-26T09:00:07.388Z,11.08
2023-10-26T09:02:35.916Z,11.09
2023-10-26T09:05:05.561Z,11.31
2023-10-26T09:07:34.093Z,11.43
2023-10-26T09:10:02.892Z,11.44
2023-10-26T09:12:31.301Z,11.44
2023-10-26T09:15:00.007Z,11.12
2023-10-26T09:17:31.323Z,10.72
2023-10-26T09:20:00.885Z,10.70
2023-10-26T09:22:39.814Z,10.82
2023-10-26T09:25:13.683Z,10.21
2023-10-26T09:27:45.655Z,10.72
2023-10-26T09:30:30.381Z,10.77
2023-10-26T09:33:01.148Z,10.93
2023-10-26T09:35:31.299Z,10.96
2023-10-26T09:38:00.713Z,11.10
2023-10-26T09:40:30.362Z,11.19
2023-10-26T09:42:59.154Z,11.30
2023-10-26T09:45:28.588Z,11.29
2023-10-26T09:47:57.519Z,11.37
2023-10-26T09:50:27.886Z,11.39
2023-10-26T09:52:57.808Z,11.59
2023-10-26T09:55:27.307Z,11.72
2023-10-26T09:58:01.911Z,11.81
2023-10-26T10:00:36.279Z,12.08
2023-10-26T10:03:15.273Z,12.34
2023-10-26T10:05:48.120Z,12.83
2023-10-26T10:08:57.616Z,12.64
2023-10-26T10:11:27.149Z,12.59
2023-10-26T10:13:55.636Z,12.70
2023-10-26T10:16:54.099Z,13.09
2023-10-26T10:19:24.566Z,13.48
2023-10-26T10:21:54.670Z,13.74
2023-10-26T10:24:55.467Z,13.54
2023-10-26T10:27:24.134Z,13.50
2023-10-26T10:29:52.951Z,13.52
2023-10-26T10:32:52.295Z,13.22
2023-10-26T10:35:44.510Z,13.03
2023-10-26T10:38:25.131Z,13.03
2023-10-26T10:41:10.985Z,12.72
2023-10-26T10:43:44.548Z,12.64
2023-10-26T10:46:21.357Z,12.89
2023-10-26T10:49:07.012Z,12.98
2023-10-26T10:51:37.118Z,13.22
2023-10-26T10:54:22.383Z,13.12
2023-10-26T10:56:58.159Z,13.44
2023-10-26T10:59:31.402Z,13.29
2023-10-26T11:02:11.463Z,13.29
2023-10-26T11:04:59.716Z,12.64
2023-10-26T11:07:32.490Z,12.67
2023-10-26T11:10:04.847Z,13.46
2023-10-26T11:12:33.253Z,13.48
2023-10-26T11:15:02.178Z,13.55
2023-10-26T11:17:32.804Z,13.40
2023-10-26T11:20:01.149Z,13.55
2023-10-26T11:22:29.791Z,13.64
2023-10-26T11:24:58.199Z,13.63
2023-10-26T11:27:27.932Z,13.69
2023-10-26T11:30:05.179Z,13.69
2023-10-26T11:32:34.040Z,13.26
2023-10-26T11:35:10.885Z,13.16
2023-10-26T11:37:42.363Z,13.15
2023-10-26T11:40:12.715Z,13.35
2023-10-26T11:42:50.326Z,13.44
2023-10-26T11:45:21.015Z,13.48
2023-10-26T11:47:52.028Z,13.22
2023-10-26T11:50:25.030Z,13.05
2023-10-26T11:52:55.420Z,13.00
2023-10-26T11:55:25.622Z,12.98
2023-10-26T11:57:57.817Z,12.92
2023-10-26T12:00:27.801Z,13.03
2023-10-26T12:02:57.077Z,12.90
2023-10-26T12:05:27.262Z,12.92
2023-10-26T12:07:56.613Z,13.09
2023-10-26T12:10:26.295Z,13.14
2023-10-26T12:12:56.276Z,13.03
2023-10-26T12:15:25.090Z,13.08
2023-10-26T12:17:53.876Z,12.74
2023-10-26T12:20:22.390Z,12.88
2023-10-26T12:22:53.180Z,12.63
2023-10-26T12:25:21.824Z,12.62
2023-10-26T12:28:19.765Z,12.82
2023-10-26T12:30:40.048Z,12.78
2023-10-26T12:33:08.535Z,12.81
2023-10-26T12:35:36.888Z,12.76
2023-10-26T12:38:05.191Z,12.77
2023-10-26T12:40:33.507Z,12.64
2023-10-26T12:43:01.937Z,12.61
2023-10-26T12:45:30.368Z,12.73
2023-10-26T12:48:00.864Z,12.68
2023-10-26T12:50:29.534Z,12.49
2023-10-26T12:52:57.882Z,12.69
2023-10-26T12:55:26.214Z,12.50
2023-10-26T12:57:56.542Z,12.67
2023-10-26T13:00:26.204Z,12.83
2023-10-26T13:02:54.656Z,12.82
2023-10-26T13:05:24.552Z,12.66
2023-10-26T13:07:53.460Z,12.48
2023-10-26T13:10:21.911Z,12.54
2023-10-26T13:12:50.183Z,12.58
2023-10-26T13:15:21.182Z,12.53
2023-10-26T13:17:50.513Z,12.48
2023-10-26T13:20:20.059Z,12.55
2023-10-26T13:22:51.916Z,12.55
2023-10-26T13:25:21.551Z,12.74
2023-10-26T13:27:50.443Z,12.80
2023-10-26T13:30:19.056Z,12.86
2023-10-26T13:32:47.451Z,12.84
2023-10-26T13:35:15.768Z,13.00
2023-10-26T13:37:44.105Z,12.83
2023-10-26T13:40:14.336Z,13.07
2023-10-26T13:42:42.698Z,12.91
2023-10-26T13:45:11.872Z,12.99
2023-10-26T13:47:40.578Z,13.01
2023-10-26T13:50:10.357Z,12.25
2023-10-26T13:52:38.762Z,12.81
2023-10-26T13:55:07.855Z,12.90
2023-10-26T13:57:37.599Z,12.87
2023-10-26T14:00:09.739Z,12.84
2023-10-26T14:02:40.875Z,12.78
2023-10-26T14:05:24.690Z,12.84
2023-10-26T14:07:59.194Z,12.85
2023-10-26T14:10:27.637Z,12.92
2023-10-26T14:12:57.574Z,12.87
2023-10-26T14:15:26.263Z,12.89
2023-10-26T14:17:54.687Z,12.93
2023-10-26T14:20:23.206Z,12.94
2023-10-26T14:22:51.534Z,12.86
2023-10-26T14:25:20.244Z,12.82
2023-10-26T14:27:48.527Z,12.69
2023-10-26T14:30:18.462Z,12.68
2023-10-26T14:32:46.856Z,12.68
2023-10-26T14:35:16.657Z,12.89
2023-10-26T14:37:50.402Z,12.82
2023-10-26T14:40:19.808Z,12.85
2023-10-26T14:42:48.473Z,12.81
2023-10-26T14:45:18.369Z,12.78
2023-10-26T14:47:47.036Z,12.74
2023-10-26T14:50:15.646Z,12.76
2023-10-26T14:52:44.113Z,12.69
2023-10-26T14:55:12.537Z,12.66
2023-10-26T14:57:40.938Z,12.67
2023-10-26T15:00:11.555Z,12.94
2023-10-26T15:02:41.384Z,12.68
2023-10-26T15:05:10.719Z,12.83
2023-10-26T15:07:39.247Z,12.71
2023-10-26T15:10:22.999Z,12.77
2023-10-26T15:12:54.533Z,12.93
2023-10-26T15:15:23.032Z,13.11
2023-10-26T15:17:53.495Z,12.76
2023-10-26T15:20:21.903Z,12.97
2023-10-26T15:22:50.269Z,12.98
2023-10-26T15:25:18.935Z,13.07
2023-10-26T15:27:47.369Z,12.98
2023-10-26T15:30:16.015Z,12.71
2023-10-26T15:32:44.423Z,11.79
2023-10-26T15:35:14.693Z,12.79
2023-10-26T15:37:43.005Z,12.74
2023-10-26T15:40:14.737Z,12.66
2023-10-26T15:42:43.194Z,12.67
2023-10-26T15:45:13.691Z,12.75
2023-10-26T15:47:42.706Z,12.93
2023-10-26T15:50:13.221Z,12.57
2023-10-26T15:52:41.585Z,12.84
2023-10-26T15:55:10.899Z,12.68
2023-10-26T15:57:39.476Z,12.58
2023-10-26T16:00:11.450Z,12.62
2023-10-26T16:02:45.964Z,12.69
2023-10-26T16:05:17.383Z,12.48
2023-10-26T16:07:45.817Z,12.47
2023-10-26T16:10:14.250Z,12.50
2023-10-26T16:12:42.770Z,12.42
2023-10-26T16:15:11.757Z,12.41
2023-10-26T16:17:41.875Z,12.37
2023-10-26T16:20:12.375Z,12.39
2023-10-26T16:22:42.181Z,12.19
2023-10-26T16:25:11.075Z,12.38
2023-10-26T16:27:39.486Z,12.25
2023-10-26T16:30:09.849Z,12.33
2023-10-26T16:32:38.856Z,12.47
2023-10-26T16:35:10.882Z,12.47
2023-10-26T16:37:39.381Z,12.21
2023-10-26T16:40:10.535Z,12.19
2023-10-26T16:42:39.107Z,12.10
2023-10-26T16:45:08.226Z,12.27
2023-10-26T16:47:44.346Z,12.35
2023-10-26T16:50:23.194Z,12.28
2023-10-26T16:52:52.187Z,12.27
2023-10-26T16:55:22.119Z,12.21
2023-10-26T16:57:50.452Z,12.23
2023-10-26T17:00:19.746Z,12.14
2023-10-26T17:02:48.763Z,11.91
2023-10-26T17:05:17.225Z,12.17
2023-10-26T17:07:46.675Z,12.09
2023-10-26T17:10:15.398Z,12.15
2023-10-26T17:12:46.931Z,12.27
2023-10-26T17:15:16.181Z,12.03
2023-10-26T17:17:44.564Z,12.19
2023-10-26T17:20:13.934Z,12.16
2023-10-26T17:22:44.654Z,12.06
2023-10-26T17:25:14.385Z,12.04
2023-10-26T17:27:44.185Z,12.16
2023-10-26T17:30:13.627Z,12.01
2023-10-26T17:32:41.968Z,12.04
2023-10-26T17:35:11.760Z,12.11
2023-10-26T17:37:40.216Z,12.10
2023-10-26T17:40:09.529Z,12.13
2023-10-26T17:42:38.648Z,12.14
2023-10-26T17:45:09.993Z,12.11
2023-10-26T17:47:38.482Z,12.10
2023-10-26T17:50:08.381Z,12.13
2023-10-26T17:52:38.262Z,12.03
2023-10-26T17:55:07.555Z,12.13
2023-10-26T17:57:36.071Z,12.26
2023-10-26T18:00:05.729Z,12.38
2023-10-26T18:02:41.911Z,12.24
2023-10-26T18:05:11.072Z,12.25
2023-10-26T18:07:39.404Z,12.22
2023-10-26T18:10:09.640Z,12.17
2023-10-26T18:12:38.151Z,12.10
2023-10-26T18:15:09.261Z,12.09
2023-10-26T18:17:37.758Z,12.07
2023-10-26T18:20:11.063Z,12.11
2023-10-26T18:22:40.376Z,12.07
2023-10-26T18:25:10.589Z,12.04
2023-10-26T18:27:39.179Z,12.03
2023-10-26T18:30:09.437Z,12.08
2023-10-26T18:32:37.810Z,12.09
2023-10-26T18:35:09.467Z,12.04
2023-10-26T18:37:37.798Z,12.12
2023-10-26T18:40:08.927Z,12.12
2023-10-26T18:42:37.335Z,11.96
2023-10-26T18:45:06.566Z,11.98
2023-10-26T18:47:35.048Z,11.89
2023-10-26T18:50:03.516Z,11.98
2023-10-26T18:52:33.252Z,11.97
2023-10-26T18:55:01.661Z,11.94
2023-10-26T18:57:30.152Z,11.92
2023-10-26T18:59:58.456Z,11.94
2023-10-26T19:02:26.975Z,11.98
2023-10-26T19:04:55.310Z,11.98
2023-10-26T19:07:23.660Z,12.04
2023-10-26T19:09:53.508Z,11.99
2023-10-26T19:12:22.017Z,11.88
2023-10-26T19:14:50.745Z,11.95
2023-10-26T19:17:19.079Z,12.01
2023-10-26T19:19:47.448Z,12.03
2023-10-26T19:22:15.833Z,12.04
2023-10-26T19:24:44.430Z,12.01
2023-10-26T19:27:14.114Z,11.96
2023-10-26T19:29:42.752Z,11.97
2023-10-26T19:32:11.467Z,12.01
2023-10-26T19:34:39.987Z,12.04
2023-10-26T19:37:08.427Z,12.13
2023-10-26T19:39:36.969Z,12.17
2023-10-26T19:42:06.170Z,12.24
2023-10-26T19:44:35.859Z,12.11
2023-10-26T19:47:04.493Z,12.15
2023-10-26T19:49:32.934Z,12.21
2023-10-26T19:52:01.292Z,12.24
2023-10-26T19:54:29.845Z,12.24
2023-10-26T19:56:58.160Z,12.19
2023-10-26T19:59:26.540Z,12.15
2023-10-26T20:01:56.833Z,12.17
2023-10-26T20:04:25.288Z,12.15
2023-10-26T20:06:53.795Z,12.18
2023-10-26T20:09:22.186Z,12.29
2023-10-26T20:11:51.326Z,12.17
2023-10-26T20:14:20.383Z,12.06
2023-10-26T20:16:48.798Z,12.35
2023-10-26T20:19:18.946Z,12.33
2023-10-26T20:21:47.544Z,12.29
2023-10-26T20:24:16.624Z,12.25
2023-10-26T20:26:45.058Z,12.28
2023-10-26T20:29:14.841Z,12.16
2023-10-26T20:31:44.027Z,12.17
2023-10-26T20:34:18.069Z,12.27
2023-10-26T20:36:50.169Z,12.16
2023-10-26T20:39:18.945Z,12.28
2023-10-26T20:41:47.372Z,12.23
2023-10-26T20:44:16.630Z,11.81
2023-10-26T20:46:45.086Z,12.15
2023-10-26T20:49:13.552Z,12.17
2023-10-26T20:51:42.712Z,12.23
2023-10-26T20:54:12.505Z,12.23
2023-10-26T20:56:40.867Z,12.25
2023-10-26T20:59:09.220Z,12.37
2023-10-26T21:01:39.337Z,12.18
2023-10-26T21:04:08.206Z,12.23
2023-10-26T21:06:36.791Z,12.21
2023-10-26T21:09:05.671Z,12.23
2023-10-26T21:11:35.393Z,12.09
2023-10-26T21:14:04.250Z,12.21
2023-10-26T21:16:32.898Z,11.56
2023-10-26T21:19:01.412Z,12.23
2023-10-26T21:21:29.765Z,12.28
2023-10-26T21:23:58.086Z,12.27
2023-10-26T21:26:27.010Z,12.34
2023-10-26T21:28:56.692Z,12.42
2023-10-26T21:31:25.551Z,12.45
2023-10-26T21:33:54.301Z,12.47
2023-10-26T21:36:22.759Z,12.52
2023-10-26T21:38:51.638Z,11.81
2023-10-26T21:41:19.950Z,12.53
2023-10-26T21:43:48.277Z,12.60
2023-10-26T21:46:18.004Z,12.80
2023-10-26T21:48:46.446Z,12.85
2023-10-26T21:51:14.869Z,12.89
2023-10-26T21:53:43.195Z,12.66
2023-10-26T21:56:11.502Z,12.76
2023-10-26T21:58:41.756Z,12.76
2023-10-26T22:01:10.609Z,12.65
2023-10-26T22:03:43.098Z,12.59
2023-10-26T22:06:11.654Z,12.64
2023-10-26T22:08:40.079Z,12.44
2023-10-26T22:11:08.450Z,12.58
2023-10-26T22:13:37.954Z,12.46
2023-10-26T22:16:07.123Z,12.62
2023-10-26T22:18:35.518Z,12.80
2023-10-26T22:21:06.791Z,12.59
2023-10-26T22:23:35.227Z,12.66
2023-10-26T22:26:04.651Z,12.70
2023-10-26T22:28:33.054Z,12.50
2023-10-26T22:31:04.855Z,12.30
2023-10-26T22:33:37.583Z,12.22
2023-10-26T22:36:09.061Z,12.42
2023-10-26T22:38:37.840Z,12.41
2023-10-26T22:41:09.238Z,12.29
2023-10-26T22:43:37.624Z,12.27
2023-10-26T22:46:06.666Z,12.27
2023-10-26T22:48:34.982Z,12.21
2023-10-26T22:51:03.314Z,12.37
2023-10-26T22:53:33.111Z,12.22
2023-10-26T22:56:02.885Z,12.25
2023-10-26T22:58:31.208Z,12.25
2023-10-26T23:00:59.563Z,12.27
2023-10-26T23:03:27.923Z,12.34
2023-10-26T23:05:59.755Z,12.32
2023-10-26T23:08:29.038Z,12.20
2023-10-26T23:11:01.362Z,12.19
2023-10-26T23:13:29.686Z,12.28
2023-10-26T23:15:58.055Z,12.24
2023-10-26T23:18:26.456Z,12.33
2023-10-26T23:20:54.882Z,12.30
2023-10-26T23:23:23.203Z,12.35
2023-10-26T23:25:51.609Z,12.40
2023-10-26T23:28:21.341Z,12.42
2023-10-26T23:30:51.001Z,12.47
2023-10-26T23:33:19.380Z,12.55
2023-10-26T23:35:47.733Z,12.42
2023-10-26T23:38:16.029Z,12.37
2023-10-26T23:40:44.552Z,12.49
2023-10-26T23:43:12.909Z,12.48
2023-10-26T23:45:42.616Z,12.47
2023-10-26T23:48:10.980Z,12.52
2023-10-26T23:50:39.331Z,12.57
2023-10-26T23:53:07.699Z,12.76
2023-10-26T23:55:36.020Z,12.74
2023-10-26T23:58:04.496Z,12.73
